sensor_id;sensor_type;location;lat;lon;timestamp;P1;durP1;ratioP1;P2;durP2;ratioP2
6519;SDS011;3293;51.690;5.982;2023-02-15T00:01:32;55.40;;;32.30;;
6519;SDS011;3293;51.690;5.982;2023-02-15T00:06:33;58.10;;;32.93;;
6519;SDS011;3293;51.690;5.982;2023-02-15T00:11:34;55.47;;;30.80;;
6519;SDS011;3293;51.690;5.982;2023-02-15T00:16:40;51.80;;;29.00;;
6519;SDS011;3293;51.690;5.982;2023-02-15T00:21:42;54.43;;;30.53;;
6519;SDS011;3293;51.690;5.982;2023-02-15T00:26:42;55.07;;;30.37;;
6519;SDS011;3293;51.690;5.982;2023-02-15T00:31:42;49.00;;;29.10;;
6519;SDS011;3293;51.690;5.982;2023-02-15T00:36:43;50.73;;;29.43;;
6519;SDS011;3293;51.690;5.982;2023-02-15T00:41:43;54.67;;;29.17;;
6519;SDS011;3293;51.690;5.982;2023-02-15T00:46:44;52.20;;;29.80;;
6519;SDS011;3293;51.690;5.982;2023-02-15T00:51:44;42.97;;;27.83;;
6519;SDS011;3293;51.690;5.982;2023-02-15T00:56:44;48.50;;;28.40;;
6519;SDS011;3293;51.690;5.982;2023-02-15T01:01:44;41.47;;;26.60;;
6519;SDS011;3293;51.690;5.982;2023-02-15T01:06:45;42.77;;;27.30;;
6519;SDS011;3293;51.690;5.982;2023-02-15T01:11:45;49.37;;;27.47;;
6519;SDS011;3293;51.690;5.982;2023-02-15T01:16:45;48.37;;;27.93;;
6519;SDS011;3293;51.690;5.982;2023-02-15T01:21:44;44.17;;;26.03;;
6519;SDS011;3293;51.690;5.982;2023-02-15T01:26:44;40.87;;;27.47;;
6519;SDS011;3293;51.690;5.982;2023-02-15T01:31:45;40.50;;;25.27;;
6519;SDS011;3293;51.690;5.982;2023-02-15T01:36:44;44.60;;;27.27;;
6519;SDS011;3293;51.690;5.982;2023-02-15T01:41:44;41.50;;;25.83;;
6519;SDS011;3293;51.690;5.982;2023-02-15T01:46:45;43.30;;;24.30;;
6519;SDS011;3293;51.690;5.982;2023-02-15T01:51:50;41.60;;;24.30;;
6519;SDS011;3293;51.690;5.982;2023-02-15T01:56:52;47.07;;;25.13;;
6519;SDS011;3293;51.690;5.982;2023-02-15T02:01:54;43.40;;;24.83;;
6519;SDS011;3293;51.690;5.982;2023-02-15T02:06:58;35.87;;;23.20;;
6519;SDS011;3293;51.690;5.982;2023-02-15T02:11:59;48.13;;;25.17;;
6519;SDS011;3293;51.690;5.982;2023-02-15T02:17:04;46.50;;;25.13;;
6519;SDS011;3293;51.690;5.982;2023-02-15T02:32:52;40.90;;;24.90;;
6519;SDS011;3293;51.690;5.982;2023-02-15T02:43:05;43.10;;;25.40;;
6519;SDS011;3293;51.690;5.982;2023-02-15T02:48:15;42.83;;;24.93;;
6519;SDS011;3293;51.690;5.982;2023-02-15T02:53:21;41.20;;;24.57;;
6519;SDS011;3293;51.690;5.982;2023-02-15T03:03:29;45.13;;;24.33;;
6519;SDS011;3293;51.690;5.982;2023-02-15T03:08:36;40.77;;;22.83;;
6519;SDS011;3293;51.690;5.982;2023-02-15T03:13:41;40.23;;;24.33;;
6519;SDS011;3293;51.690;5.982;2023-02-15T03:18:45;44.33;;;24.70;;
6519;SDS011;3293;51.690;5.982;2023-02-15T03:23:59;39.27;;;24.17;;
6519;SDS011;3293;51.690;5.982;2023-02-15T03:29:04;42.80;;;24.27;;
6519;SDS011;3293;51.690;5.982;2023-02-15T03:34:06;39.77;;;24.17;;
6519;SDS011;3293;51.690;5.982;2023-02-15T03:44:29;45.83;;;23.43;;
6519;SDS011;3293;51.690;5.982;2023-02-15T03:49:39;40.83;;;23.03;;
6519;SDS011;3293;51.690;5.982;2023-02-15T03:54:44;36.23;;;23.40;;
6519;SDS011;3293;51.690;5.982;2023-02-15T03:59:47;40.67;;;24.57;;
6519;SDS011;3293;51.690;5.982;2023-02-15T04:05:05;38.47;;;24.33;;
6519;SDS011;3293;51.690;5.982;2023-02-15T04:10:05;43.03;;;24.67;;
6519;SDS011;3293;51.690;5.982;2023-02-15T04:15:24;37.53;;;22.47;;
6519;SDS011;3293;51.690;5.982;2023-02-15T04:20:43;41.93;;;24.20;;
6519;SDS011;3293;51.690;5.982;2023-02-15T04:26:03;46.83;;;26.60;;
6519;SDS011;3293;51.690;5.982;2023-02-15T04:31:04;44.23;;;26.13;;
6519;SDS011;3293;51.690;5.982;2023-02-15T04:36:04;38.17;;;23.90;;
6519;SDS011;3293;51.690;5.982;2023-02-15T04:41:04;42.50;;;25.57;;
6519;SDS011;3293;51.690;5.982;2023-02-15T04:46:05;44.70;;;24.77;;
6519;SDS011;3293;51.690;5.982;2023-02-15T04:51:05;50.13;;;26.83;;
6519;SDS011;3293;51.690;5.982;2023-02-15T04:56:06;43.23;;;25.13;;
6519;SDS011;3293;51.690;5.982;2023-02-15T05:01:07;42.43;;;24.17;;
6519;SDS011;3293;51.690;5.982;2023-02-15T05:06:08;48.93;;;26.33;;
6519;SDS011;3293;51.690;5.982;2023-02-15T05:11:08;43.50;;;25.77;;
6519;SDS011;3293;51.690;5.982;2023-02-15T05:16:08;47.93;;;26.07;;
6519;SDS011;3293;51.690;5.982;2023-02-15T05:21:08;51.53;;;27.70;;
6519;SDS011;3293;51.690;5.982;2023-02-15T05:26:10;57.53;;;27.83;;
6519;SDS011;3293;51.690;5.982;2023-02-15T05:31:30;53.30;;;28.73;;
6519;SDS011;3293;51.690;5.982;2023-02-15T05:36:31;51.70;;;29.40;;
6519;SDS011;3293;51.690;5.982;2023-02-15T05:41:31;50.07;;;28.63;;
6519;SDS011;3293;51.690;5.982;2023-02-15T05:46:31;53.83;;;29.17;;
6519;SDS011;3293;51.690;5.982;2023-02-15T05:51:31;51.67;;;26.50;;
6519;SDS011;3293;51.690;5.982;2023-02-15T05:56:31;54.90;;;29.90;;
6519;SDS011;3293;51.690;5.982;2023-02-15T06:01:31;57.67;;;30.33;;
6519;SDS011;3293;51.690;5.982;2023-02-15T06:06:31;55.33;;;29.43;;
6519;SDS011;3293;51.690;5.982;2023-02-15T06:11:31;55.27;;;29.67;;
6519;SDS011;3293;51.690;5.982;2023-02-15T06:16:31;53.03;;;29.47;;
6519;SDS011;3293;51.690;5.982;2023-02-15T06:21:31;52.50;;;28.97;;
6519;SDS011;3293;51.690;5.982;2023-02-15T06:26:31;53.50;;;30.43;;
6519;SDS011;3293;51.690;5.982;2023-02-15T06:31:31;57.03;;;30.40;;
6519;SDS011;3293;51.690;5.982;2023-02-15T06:36:31;53.50;;;28.67;;
6519;SDS011;3293;51.690;5.982;2023-02-15T06:41:31;54.80;;;28.60;;
6519;SDS011;3293;51.690;5.982;2023-02-15T06:46:31;57.37;;;27.67;;
6519;SDS011;3293;51.690;5.982;2023-02-15T06:51:31;52.53;;;28.60;;
6519;SDS011;3293;51.690;5.982;2023-02-15T06:56:34;51.50;;;29.40;;
6519;SDS011;3293;51.690;5.982;2023-02-15T07:01:34;58.20;;;31.43;;
6519;SDS011;3293;51.690;5.982;2023-02-15T07:06:36;51.03;;;30.00;;
6519;SDS011;3293;51.690;5.982;2023-02-15T07:11:36;52.90;;;30.53;;
6519;SDS011;3293;51.690;5.982;2023-02-15T07:16:54;53.87;;;30.60;;
6519;SDS011;3293;51.690;5.982;2023-02-15T07:21:54;64.93;;;33.23;;
6519;SDS011;3293;51.690;5.982;2023-02-15T07:26:54;65.50;;;31.77;;
6519;SDS011;3293;51.690;5.982;2023-02-15T07:31:54;66.90;;;34.10;;
6519;SDS011;3293;51.690;5.982;2023-02-15T07:36:54;69.23;;;34.27;;
6519;SDS011;3293;51.690;5.982;2023-02-15T07:41:54;62.20;;;33.87;;
6519;SDS011;3293;51.690;5.982;2023-02-15T07:46:54;69.10;;;35.63;;
6519;SDS011;3293;51.690;5.982;2023-02-15T07:51:54;76.47;;;36.50;;
6519;SDS011;3293;51.690;5.982;2023-02-15T07:56:54;77.43;;;36.87;;
6519;SDS011;3293;51.690;5.982;2023-02-15T08:01:54;66.63;;;34.83;;
6519;SDS011;3293;51.690;5.982;2023-02-15T08:06:55;63.10;;;33.67;;
6519;SDS011;3293;51.690;5.982;2023-02-15T08:11:55;59.40;;;31.97;;
6519;SDS011;3293;51.690;5.982;2023-02-15T08:16:55;54.97;;;31.43;;
6519;SDS011;3293;51.690;5.982;2023-02-15T08:22:03;57.47;;;31.43;;
6519;SDS011;3293;51.690;5.982;2023-02-15T08:27:06;54.77;;;31.27;;
6519;SDS011;3293;51.690;5.982;2023-02-15T08:32:08;58.13;;;31.67;;
6519;SDS011;3293;51.690;5.982;2023-02-15T08:37:11;52.97;;;30.57;;
6519;SDS011;3293;51.690;5.982;2023-02-15T08:42:11;53.57;;;29.70;;
6519;SDS011;3293;51.690;5.982;2023-02-15T08:47:11;57.40;;;31.23;;
6519;SDS011;3293;51.690;5.982;2023-02-15T08:52:11;51.47;;;29.77;;
6519;SDS011;3293;51.690;5.982;2023-02-15T08:57:11;55.23;;;31.43;;
6519;SDS011;3293;51.690;5.982;2023-02-15T09:02:11;50.03;;;30.07;;
6519;SDS011;3293;51.690;5.982;2023-02-15T09:07:11;48.63;;;30.50;;
6519;SDS011;3293;51.690;5.982;2023-02-15T09:12:11;48.53;;;29.27;;
6519;SDS011;3293;51.690;5.982;2023-02-15T09:17:11;50.53;;;29.97;;
6519;SDS011;3293;51.690;5.982;2023-02-15T09:22:11;49.67;;;30.77;;
6519;SDS011;3293;51.690;5.982;2023-02-15T09:27:12;46.03;;;27.07;;
6519;SDS011;3293;51.690;5.982;2023-02-15T09:32:15;50.20;;;28.40;;
6519;SDS011;3293;51.690;5.982;2023-02-15T09:37:16;44.03;;;27.83;;
6519;SDS011;3293;51.690;5.982;2023-02-15T09:42:22;41.77;;;26.53;;
6519;SDS011;3293;51.690;5.982;2023-02-15T09:47:33;47.40;;;26.17;;
6519;SDS011;3293;51.690;5.982;2023-02-15T09:53:10;39.90;;;25.20;;
6519;SDS011;3293;51.690;5.982;2023-02-15T09:59:07;39.00;;;25.97;;
6519;SDS011;3293;51.690;5.982;2023-02-15T10:14:42;38.57;;;25.70;;
6519;SDS011;3293;51.690;5.982;2023-02-15T10:30:43;42.83;;;26.00;;
6519;SDS011;3293;51.690;5.982;2023-02-15T10:35:54;38.13;;;24.83;;
6519;SDS011;3293;51.690;5.982;2023-02-15T10:41:24;38.10;;;24.57;;
6519;SDS011;3293;51.690;5.982;2023-02-15T10:51:39;38.73;;;25.27;;
6519;SDS011;3293;51.690;5.982;2023-02-15T11:02:37;40.43;;;23.77;;
6519;SDS011;3293;51.690;5.982;2023-02-15T11:07:28;43.47;;;24.80;;
6519;SDS011;3293;51.690;5.982;2023-02-15T11:12:34;36.93;;;23.90;;
6519;SDS011;3293;51.690;5.982;2023-02-15T11:17:35;38.43;;;24.63;;
6519;SDS011;3293;51.690;5.982;2023-02-15T11:22:38;38.53;;;25.37;;
6519;SDS011;3293;51.690;5.982;2023-02-15T11:27:41;40.60;;;25.17;;
6519;SDS011;3293;51.690;5.982;2023-02-15T11:32:43;39.10;;;26.30;;
6519;SDS011;3293;51.690;5.982;2023-02-15T11:37:46;44.07;;;25.77;;
6519;SDS011;3293;51.690;5.982;2023-02-15T11:42:55;41.80;;;25.47;;
6519;SDS011;3293;51.690;5.982;2023-02-15T11:47:58;37.87;;;23.93;;
6519;SDS011;3293;51.690;5.982;2023-02-15T11:53:00;40.03;;;25.40;;
6519;SDS011;3293;51.690;5.982;2023-02-15T12:03:39;36.97;;;23.27;;
6519;SDS011;3293;51.690;5.982;2023-02-15T12:08:48;37.97;;;22.70;;
6519;SDS011;3293;51.690;5.982;2023-02-15T12:14:04;37.30;;;23.13;;
6519;SDS011;3293;51.690;5.982;2023-02-15T12:19:10;37.67;;;22.93;;
6519;SDS011;3293;51.690;5.982;2023-02-15T12:24:34;38.43;;;22.73;;
6519;SDS011;3293;51.690;5.982;2023-02-15T12:29:45;33.97;;;22.10;;
6519;SDS011;3293;51.690;5.982;2023-02-15T12:34:47;35.43;;;23.03;;
6519;SDS011;3293;51.690;5.982;2023-02-15T12:39:55;33.70;;;22.50;;
6519;SDS011;3293;51.690;5.982;2023-02-15T12:44:58;35.13;;;21.87;;
6519;SDS011;3293;51.690;5.982;2023-02-15T12:50:08;34.07;;;22.50;;
6519;SDS011;3293;51.690;5.982;2023-02-15T12:55:25;34.33;;;22.30;;
6519;SDS011;3293;51.690;5.982;2023-02-15T13:00:29;31.60;;;22.00;;
6519;SDS011;3293;51.690;5.982;2023-02-15T13:05:41;33.23;;;22.23;;
6519;SDS011;3293;51.690;5.982;2023-02-15T13:16:05;31.27;;;21.70;;
6519;SDS011;3293;51.690;5.982;2023-02-15T13:21:11;33.30;;;21.47;;
6519;SDS011;3293;51.690;5.982;2023-02-15T13:26:16;33.73;;;20.87;;
6519;SDS011;3293;51.690;5.982;2023-02-15T13:31:20;36.23;;;21.40;;
6519;SDS011;3293;51.690;5.982;2023-02-15T13:41:33;33.13;;;21.77;;
6519;SDS011;3293;51.690;5.982;2023-02-15T13:46:56;35.27;;;22.03;;
6519;SDS011;3293;51.690;5.982;2023-02-15T13:52:16;32.53;;;21.87;;
6519;SDS011;3293;51.690;5.982;2023-02-15T14:24:06;34.93;;;20.60;;
6519;SDS011;3293;51.690;5.982;2023-02-15T14:34:53;34.63;;;21.37;;
6519;SDS011;3293;51.690;5.982;2023-02-15T14:40:06;40.63;;;22.13;;
6519;SDS011;3293;51.690;5.982;2023-02-15T15:07:12;30.20;;;20.90;;
6519;SDS011;3293;51.690;5.982;2023-02-15T15:22:35;40.13;;;22.83;;
6519;SDS011;3293;51.690;5.982;2023-02-15T15:38:14;33.63;;;22.37;;
6519;SDS011;3293;51.690;5.982;2023-02-15T15:43:41;32.30;;;21.87;;
6519;SDS011;3293;51.690;5.982;2023-02-15T15:48:54;35.37;;;23.17;;
6519;SDS011;3293;51.690;5.982;2023-02-15T15:53:54;37.53;;;24.17;;
6519;SDS011;3293;51.690;5.982;2023-02-15T15:58:58;33.77;;;22.83;;
6519;SDS011;3293;51.690;5.982;2023-02-15T16:04:01;37.00;;;22.47;;
6519;SDS011;3293;51.690;5.982;2023-02-15T16:09:16;38.63;;;23.53;;
6519;SDS011;3293;51.690;5.982;2023-02-15T16:14:29;34.77;;;23.53;;
6519;SDS011;3293;51.690;5.982;2023-02-15T16:19:40;37.20;;;23.80;;
6519;SDS011;3293;51.690;5.982;2023-02-15T16:29:53;36.77;;;23.63;;
6519;SDS011;3293;51.690;5.982;2023-02-15T16:34:55;36.43;;;22.67;;
6519;SDS011;3293;51.690;5.982;2023-02-15T16:39:59;36.07;;;24.23;;
6519;SDS011;3293;51.690;5.982;2023-02-15T16:45:05;33.83;;;23.23;;
6519;SDS011;3293;51.690;5.982;2023-02-15T16:50:16;37.53;;;25.50;;
6519;SDS011;3293;51.690;5.982;2023-02-15T16:55:20;41.87;;;25.83;;
6519;SDS011;3293;51.690;5.982;2023-02-15T17:00:25;37.70;;;24.20;;
6519;SDS011;3293;51.690;5.982;2023-02-15T17:16:23;45.30;;;27.10;;
6519;SDS011;3293;51.690;5.982;2023-02-15T17:21:30;40.50;;;24.77;;
6519;SDS011;3293;51.690;5.982;2023-02-15T17:26:35;38.47;;;25.63;;
6519;SDS011;3293;51.690;5.982;2023-02-15T17:31:36;44.77;;;26.27;;
6519;SDS011;3293;51.690;5.982;2023-02-15T17:36:37;39.30;;;23.73;;
6519;SDS011;3293;51.690;5.982;2023-02-15T17:41:57;41.97;;;24.17;;
6519;SDS011;3293;51.690;5.982;2023-02-15T17:46:58;41.93;;;24.77;;
6519;SDS011;3293;51.690;5.982;2023-02-15T17:51:58;40.67;;;23.27;;
6519;SDS011;3293;51.690;5.982;2023-02-15T17:56:58;42.67;;;24.83;;
6519;SDS011;3293;51.690;5.982;2023-02-15T18:02:07;37.77;;;23.43;;
6519;SDS011;3293;51.690;5.982;2023-02-15T18:07:28;38.67;;;24.30;;
6519;SDS011;3293;51.690;5.982;2023-02-15T18:12:47;42.43;;;25.53;;
6519;SDS011;3293;51.690;5.982;2023-02-15T18:17:47;39.93;;;26.07;;
6519;SDS011;3293;51.690;5.982;2023-02-15T18:22:47;40.93;;;25.93;;
6519;SDS011;3293;51.690;5.982;2023-02-15T18:27:48;41.57;;;25.60;;
6519;SDS011;3293;51.690;5.982;2023-02-15T18:32:48;39.83;;;24.93;;
6519;SDS011;3293;51.690;5.982;2023-02-15T18:37:51;42.50;;;25.80;;
6519;SDS011;3293;51.690;5.982;2023-02-15T18:42:52;44.10;;;25.50;;
6519;SDS011;3293;51.690;5.982;2023-02-15T18:47:52;42.73;;;24.50;;
6519;SDS011;3293;51.690;5.982;2023-02-15T18:52:53;41.00;;;25.90;;
6519;SDS011;3293;51.690;5.982;2023-02-15T18:57:54;38.63;;;25.23;;
6519;SDS011;3293;51.690;5.982;2023-02-15T19:02:55;41.13;;;24.57;;
6519;SDS011;3293;51.690;5.982;2023-02-15T19:07:56;38.73;;;24.37;;
6519;SDS011;3293;51.690;5.982;2023-02-15T19:12:59;48.10;;;26.70;;
6519;SDS011;3293;51.690;5.982;2023-02-15T19:18:00;45.13;;;28.53;;
6519;SDS011;3293;51.690;5.982;2023-02-15T19:23:00;42.67;;;27.37;;
6519;SDS011;3293;51.690;5.982;2023-02-15T19:28:01;47.87;;;29.97;;
6519;SDS011;3293;51.690;5.982;2023-02-15T19:33:18;46.27;;;29.03;;
6519;SDS011;3293;51.690;5.982;2023-02-15T19:38:20;51.23;;;31.00;;
6519;SDS011;3293;51.690;5.982;2023-02-15T19:43:24;50.93;;;32.77;;
6519;SDS011;3293;51.690;5.982;2023-02-15T19:48:26;53.57;;;33.97;;
6519;SDS011;3293;51.690;5.982;2023-02-15T19:53:27;55.87;;;34.70;;
6519;SDS011;3293;51.690;5.982;2023-02-15T19:58:27;64.20;;;36.67;;
6519;SDS011;3293;51.690;5.982;2023-02-15T20:03:28;60.17;;;34.63;;
6519;SDS011;3293;51.690;5.982;2023-02-15T20:08:28;54.93;;;34.57;;
6519;SDS011;3293;51.690;5.982;2023-02-15T20:13:29;59.20;;;36.63;;
6519;SDS011;3293;51.690;5.982;2023-02-15T20:18:30;55.40;;;35.40;;
6519;SDS011;3293;51.690;5.982;2023-02-15T20:23:31;54.50;;;34.43;;
6519;SDS011;3293;51.690;5.982;2023-02-15T20:28:34;55.03;;;34.60;;
6519;SDS011;3293;51.690;5.982;2023-02-15T20:33:34;57.63;;;35.93;;
6519;SDS011;3293;51.690;5.982;2023-02-15T20:38:34;53.10;;;33.00;;
6519;SDS011;3293;51.690;5.982;2023-02-15T20:43:34;62.30;;;36.53;;
6519;SDS011;3293;51.690;5.982;2023-02-15T20:48:34;55.03;;;34.73;;
6519;SDS011;3293;51.690;5.982;2023-02-15T20:53:35;60.17;;;35.53;;
6519;SDS011;3293;51.690;5.982;2023-02-15T20:58:35;53.20;;;34.67;;
6519;SDS011;3293;51.690;5.982;2023-02-15T21:03:37;53.07;;;34.50;;
6519;SDS011;3293;51.690;5.982;2023-02-15T21:08:37;65.37;;;36.13;;
6519;SDS011;3293;51.690;5.982;2023-02-15T21:13:38;60.97;;;36.60;;
6519;SDS011;3293;51.690;5.982;2023-02-15T21:18:40;58.27;;;35.60;;
6519;SDS011;3293;51.690;5.982;2023-02-15T21:23:42;63.17;;;37.13;;
6519;SDS011;3293;51.690;5.982;2023-02-15T21:28:44;64.50;;;37.97;;
6519;SDS011;3293;51.690;5.982;2023-02-15T21:33:45;59.87;;;36.73;;
6519;SDS011;3293;51.690;5.982;2023-02-15T21:38:46;61.03;;;35.70;;
6519;SDS011;3293;51.690;5.982;2023-02-15T21:43:48;59.67;;;35.87;;
6519;SDS011;3293;51.690;5.982;2023-02-15T21:49:06;60.57;;;36.17;;
6519;SDS011;3293;51.690;5.982;2023-02-15T21:54:08;59.37;;;34.77;;
6519;SDS011;3293;51.690;5.982;2023-02-15T21:59:13;64.40;;;38.63;;
6519;SDS011;3293;51.690;5.982;2023-02-15T22:04:32;57.77;;;36.60;;
6519;SDS011;3293;51.690;5.982;2023-02-15T22:09:32;58.57;;;36.33;;
6519;SDS011;3293;51.690;5.982;2023-02-15T22:19:32;56.77;;;35.27;;
6519;SDS011;3293;51.690;5.982;2023-02-15T22:24:32;59.57;;;35.00;;
6519;SDS011;3293;51.690;5.982;2023-02-15T22:29:32;68.13;;;38.97;;
6519;SDS011;3293;51.690;5.982;2023-02-15T22:34:32;60.17;;;36.83;;
6519;SDS011;3293;51.690;5.982;2023-02-15T22:39:32;54.77;;;35.50;;
6519;SDS011;3293;51.690;5.982;2023-02-15T22:44:32;62.53;;;36.07;;
6519;SDS011;3293;51.690;5.982;2023-02-15T22:49:33;60.93;;;35.93;;
6519;SDS011;3293;51.690;5.982;2023-02-15T22:54:33;61.37;;;36.20;;
6519;SDS011;3293;51.690;5.982;2023-02-15T22:59:33;57.43;;;35.40;;
6519;SDS011;3293;51.690;5.982;2023-02-15T23:04:33;55.13;;;35.50;;
6519;SDS011;3293;51.690;5.982;2023-02-15T23:09:33;64.37;;;37.90;;
6519;SDS011;3293;51.690;5.982;2023-02-15T23:14:33;61.97;;;36.73;;
6519;SDS011;3293;51.690;5.982;2023-02-15T23:19:34;57.07;;;36.07;;
6519;SDS011;3293;51.690;5.982;2023-02-15T23:24:34;63.87;;;37.60;;
6519;SDS011;3293;51.690;5.982;2023-02-15T23:29:34;62.97;;;36.27;;
6519;SDS011;3293;51.690;5.982;2023-02-15T23:34:34;62.60;;;37.67;;
6519;SDS011;3293;51.690;5.982;2023-02-15T23:39:34;61.23;;;34.73;;
6519;SDS011;3293;51.690;5.982;2023-02-15T23:44:52;63.40;;;38.57;;
6519;SDS011;3293;51.690;5.982;2023-02-15T23:49:52;60.10;;;36.43;;
6519;SDS011;3293;51.690;5.982;2023-02-15T23:54:52;60.73;;;35.67;;
6519;SDS011;3293;51.690;5.982;2023-02-15T23:59:52;55.40;;;35.23;;
